sensor_id;sensor_type;location;lat;lon;timestamp;P1;durP1;ratioP1;P2;durP2;ratioP2
10174;SDS011;18221;38.704;0.152;2023-07-31T00:13:11;7.32;;;4.28;;
10174;SDS011;18221;38.704;0.152;2023-07-31T00:15:40;11.32;;;5.05;;
10174;SDS011;18221;38.704;0.152;2023-07-31T00:18:08;9.50;;;4.60;;
10174;SDS011;18221;38.704;0.152;2023-07-31T00:20:36;8.43;;;4.50;;
10174;SDS011;18221;38.704;0.152;2023-07-31T00:23:04;11.18;;;5.03;;
10174;SDS011;18221;38.704;0.152;2023-07-31T00:25:32;8.07;;;4.82;;
10174;SDS011;18221;38.704;0.152;2023-07-31T00:28:01;8.90;;;5.07;;
10174;SDS011;18221;38.704;0.152;2023-07-31T00:30:30;13.73;;;5.82;;
10174;SDS011;18221;38.704;0.152;2023-07-31T00:32:59;8.60;;;4.43;;
10174;SDS011;18221;38.704;0.152;2023-07-31T00:35:27;9.20;;;5.05;;
10174;SDS011;18221;38.704;0.152;2023-07-31T00:37:58;12.95;;;5.13;;
10174;SDS011;18221;38.704;0.152;2023-07-31T00:40:26;14.90;;;5.45;;
10174;SDS011;18221;38.704;0.152;2023-07-31T00:42:54;8.63;;;4.63;;
10174;SDS011;18221;38.704;0.152;2023-07-31T00:45:23;10.80;;;4.93;;
10174;SDS011;18221;38.704;0.152;2023-07-31T00:47:54;11.00;;;4.78;;
10174;SDS011;18221;38.704;0.152;2023-07-31T00:50:22;10.35;;;5.03;;
10174;SDS011;18221;38.704;0.152;2023-07-31T00:52:52;9.15;;;4.90;;
10174;SDS011;18221;38.704;0.152;2023-07-31T00:55:20;15.43;;;5.03;;
10174;SDS011;18221;38.704;0.152;2023-07-31T00:57:49;7.97;;;4.72;;
10174;SDS011;18221;38.704;0.152;2023-07-31T01:00:21;8.80;;;4.80;;
10174;SDS011;18221;38.704;0.152;2023-07-31T01:02:49;7.65;;;4.55;;
10174;SDS011;18221;38.704;0.152;2023-07-31T01:05:20;8.70;;;5.15;;
10174;SDS011;18221;38.704;0.152;2023-07-31T01:08:03;9.25;;;4.75;;
10174;SDS011;18221;38.704;0.152;2023-07-31T01:10:45;10.40;;;5.18;;
10174;SDS011;18221;38.704;0.152;2023-07-31T01:13:21;11.48;;;4.80;;
10174;SDS011;18221;38.704;0.152;2023-07-31T01:15:50;12.80;;;4.72;;
10174;SDS011;18221;38.704;0.152;2023-07-31T01:18:18;9.75;;;4.70;;
10174;SDS011;18221;38.704;0.152;2023-07-31T01:20:49;11.75;;;4.75;;
10174;SDS011;18221;38.704;0.152;2023-07-31T01:23:35;10.43;;;4.72;;
10174;SDS011;18221;38.704;0.152;2023-07-31T01:26:34;11.68;;;5.13;;
10174;SDS011;18221;38.704;0.152;2023-07-31T01:29:07;8.73;;;5.07;;
10174;SDS011;18221;38.704;0.152;2023-07-31T01:31:44;11.75;;;5.40;;
10174;SDS011;18221;38.704;0.152;2023-07-31T01:34:19;7.57;;;5.05;;
10174;SDS011;18221;38.704;0.152;2023-07-31T01:36:49;10.50;;;4.95;;
10174;SDS011;18221;38.704;0.152;2023-07-31T01:39:18;9.68;;;5.13;;
10174;SDS011;18221;38.704;0.152;2023-07-31T01:41:49;10.27;;;4.88;;
10174;SDS011;18221;38.704;0.152;2023-07-31T01:44:18;7.22;;;4.88;;
10174;SDS011;18221;38.704;0.152;2023-07-31T01:46:46;9.85;;;5.15;;
10174;SDS011;18221;38.704;0.152;2023-07-31T01:49:14;13.20;;;5.60;;
10174;SDS011;18221;38.704;0.152;2023-07-31T01:51:42;11.30;;;4.80;;
10174;SDS011;18221;38.704;0.152;2023-07-31T01:54:10;9.45;;;5.05;;
10174;SDS011;18221;38.704;0.152;2023-07-31T01:56:39;7.38;;;4.75;;
10174;SDS011;18221;38.704;0.152;2023-07-31T01:59:08;14.35;;;4.93;;
10174;SDS011;18221;38.704;0.152;2023-07-31T02:01:37;8.57;;;5.30;;
10174;SDS011;18221;38.704;0.152;2023-07-31T02:04:05;14.07;;;5.07;;
10174;SDS011;18221;38.704;0.152;2023-07-31T02:06:33;13.20;;;5.32;;
10174;SDS011;18221;38.704;0.152;2023-07-31T02:09:02;13.05;;;4.88;;
10174;SDS011;18221;38.704;0.152;2023-07-31T02:11:30;10.02;;;5.20;;
10174;SDS011;18221;38.704;0.152;2023-07-31T02:13:58;10.32;;;5.35;;
10174;SDS011;18221;38.704;0.152;2023-07-31T02:16:28;10.15;;;4.68;;
10174;SDS011;18221;38.704;0.152;2023-07-31T02:18:56;11.43;;;5.05;;
10174;SDS011;18221;38.704;0.152;2023-07-31T02:21:25;11.18;;;5.60;;
10174;SDS011;18221;38.704;0.152;2023-07-31T02:23:53;11.77;;;5.40;;
10174;SDS011;18221;38.704;0.152;2023-07-31T02:26:21;10.43;;;5.38;;
10174;SDS011;18221;38.704;0.152;2023-07-31T02:28:50;9.98;;;5.32;;
10174;SDS011;18221;38.704;0.152;2023-07-31T02:31:18;9.52;;;5.10;;
10174;SDS011;18221;38.704;0.152;2023-07-31T02:33:47;10.93;;;5.07;;
10174;SDS011;18221;38.704;0.152;2023-07-31T02:36:15;9.48;;;5.22;;
10174;SDS011;18221;38.704;0.152;2023-07-31T02:38:44;8.32;;;4.53;;
10174;SDS011;18221;38.704;0.152;2023-07-31T02:41:12;11.98;;;4.88;;
10174;SDS011;18221;38.704;0.152;2023-07-31T02:43:43;13.18;;;5.90;;
10174;SDS011;18221;38.704;0.152;2023-07-31T02:46:11;12.85;;;5.53;;
10174;SDS011;18221;38.704;0.152;2023-07-31T02:48:39;13.70;;;5.28;;
10174;SDS011;18221;38.704;0.152;2023-07-31T02:51:09;10.82;;;5.65;;
10174;SDS011;18221;38.704;0.152;2023-07-31T02:53:37;11.63;;;5.22;;
10174;SDS011;18221;38.704;0.152;2023-07-31T02:56:05;13.73;;;5.35;;
10174;SDS011;18221;38.704;0.152;2023-07-31T02:58:34;11.85;;;5.57;;
10174;SDS011;18221;38.704;0.152;2023-07-31T03:01:02;14.80;;;5.32;;
10174;SDS011;18221;38.704;0.152;2023-07-31T03:03:30;9.88;;;5.03;;
10174;SDS011;18221;38.704;0.152;2023-07-31T03:05:59;6.97;;;5.28;;
10174;SDS011;18221;38.704;0.152;2023-07-31T03:08:28;7.70;;;5.25;;
10174;SDS011;18221;38.704;0.152;2023-07-31T03:10:59;8.70;;;5.13;;
10174;SDS011;18221;38.704;0.152;2023-07-31T03:13:27;10.57;;;5.18;;
10174;SDS011;18221;38.704;0.152;2023-07-31T03:15:55;9.55;;;5.57;;
10174;SDS011;18221;38.704;0.152;2023-07-31T03:18:23;9.00;;;5.28;;
10174;SDS011;18221;38.704;0.152;2023-07-31T03:20:52;9.68;;;4.60;;
10174;SDS011;18221;38.704;0.152;2023-07-31T03:23:20;9.77;;;5.15;;
10174;SDS011;18221;38.704;0.152;2023-07-31T03:25:58;9.63;;;5.90;;
10174;SDS011;18221;38.704;0.152;2023-07-31T03:28:28;7.45;;;4.97;;
10174;SDS011;18221;38.704;0.152;2023-07-31T03:30:56;8.00;;;4.68;;
10174;SDS011;18221;38.704;0.152;2023-07-31T03:33:25;9.30;;;4.90;;
10174;SDS011;18221;38.704;0.152;2023-07-31T03:35:53;10.88;;;5.22;;
10174;SDS011;18221;38.704;0.152;2023-07-31T03:38:21;7.95;;;5.35;;
10174;SDS011;18221;38.704;0.152;2023-07-31T03:40:50;11.05;;;5.60;;
10174;SDS011;18221;38.704;0.152;2023-07-31T03:43:19;8.23;;;4.95;;
10174;SDS011;18221;38.704;0.152;2023-07-31T03:45:47;8.02;;;5.50;;
10174;SDS011;18221;38.704;0.152;2023-07-31T03:48:16;11.82;;;5.88;;
10174;SDS011;18221;38.704;0.152;2023-07-31T03:50:44;9.27;;;5.80;;
10174;SDS011;18221;38.704;0.152;2023-07-31T03:53:12;11.65;;;5.72;;
10174;SDS011;18221;38.704;0.152;2023-07-31T03:55:41;13.10;;;6.38;;
10174;SDS011;18221;38.704;0.152;2023-07-31T03:58:09;8.80;;;5.07;;
10174;SDS011;18221;38.704;0.152;2023-07-31T04:00:40;9.93;;;5.50;;
10174;SDS011;18221;38.704;0.152;2023-07-31T04:03:08;8.90;;;5.57;;
10174;SDS011;18221;38.704;0.152;2023-07-31T04:05:37;8.20;;;5.25;;
10174;SDS011;18221;38.704;0.152;2023-07-31T04:08:06;7.45;;;5.47;;
10174;SDS011;18221;38.704;0.152;2023-07-31T04:10:34;10.90;;;5.47;;
10174;SDS011;18221;38.704;0.152;2023-07-31T04:13:02;10.02;;;5.20;;
10174;SDS011;18221;38.704;0.152;2023-07-31T04:15:30;9.32;;;5.50;;
10174;SDS011;18221;38.704;0.152;2023-07-31T04:18:00;8.13;;;5.53;;
10174;SDS011;18221;38.704;0.152;2023-07-31T04:20:28;8.30;;;5.70;;
10174;SDS011;18221;38.704;0.152;2023-07-31T04:22:57;8.88;;;5.40;;
10174;SDS011;18221;38.704;0.152;2023-07-31T04:25:25;8.60;;;5.90;;
10174;SDS011;18221;38.704;0.152;2023-07-31T04:27:53;6.60;;;5.20;;
10174;SDS011;18221;38.704;0.152;2023-07-31T04:30:21;12.55;;;6.07;;
10174;SDS011;18221;38.704;0.152;2023-07-31T04:32:49;8.57;;;5.93;;
10174;SDS011;18221;38.704;0.152;2023-07-31T04:35:19;6.82;;;5.18;;
10174;SDS011;18221;38.704;0.152;2023-07-31T04:37:47;10.95;;;6.15;;
10174;SDS011;18221;38.704;0.152;2023-07-31T04:40:15;12.43;;;6.25;;
10174;SDS011;18221;38.704;0.152;2023-07-31T04:42:44;8.77;;;5.93;;
10174;SDS011;18221;38.704;0.152;2023-07-31T04:45:12;13.25;;;6.00;;
10174;SDS011;18221;38.704;0.152;2023-07-31T04:47:40;9.77;;;6.00;;
10174;SDS011;18221;38.704;0.152;2023-07-31T04:50:09;10.77;;;5.57;;
10174;SDS011;18221;38.704;0.152;2023-07-31T04:52:39;12.27;;;6.15;;
10174;SDS011;18221;38.704;0.152;2023-07-31T04:55:07;9.20;;;5.80;;
10174;SDS011;18221;38.704;0.152;2023-07-31T04:57:36;10.55;;;6.00;;
10174;SDS011;18221;38.704;0.152;2023-07-31T05:00:04;10.23;;;5.45;;
10174;SDS011;18221;38.704;0.152;2023-07-31T05:02:34;9.88;;;5.72;;
10174;SDS011;18221;38.704;0.152;2023-07-31T05:05:02;10.05;;;5.25;;
10174;SDS011;18221;38.704;0.152;2023-07-31T05:07:31;8.40;;;5.18;;
10174;SDS011;18221;38.704;0.152;2023-07-31T05:10:01;8.70;;;5.82;;
10174;SDS011;18221;38.704;0.152;2023-07-31T05:12:29;11.55;;;5.95;;
10174;SDS011;18221;38.704;0.152;2023-07-31T05:14:58;8.90;;;5.75;;
10174;SDS011;18221;38.704;0.152;2023-07-31T05:17:26;10.00;;;5.45;;
10174;SDS011;18221;38.704;0.152;2023-07-31T05:19:54;9.77;;;5.50;;
10174;SDS011;18221;38.704;0.152;2023-07-31T05:22:22;8.63;;;5.95;;
10174;SDS011;18221;38.704;0.152;2023-07-31T05:24:50;9.90;;;6.22;;
10174;SDS011;18221;38.704;0.152;2023-07-31T05:27:20;11.10;;;6.63;;
10174;SDS011;18221;38.704;0.152;2023-07-31T05:29:48;11.10;;;6.72;;
10174;SDS011;18221;38.704;0.152;2023-07-31T05:32:17;11.13;;;6.70;;
10174;SDS011;18221;38.704;0.152;2023-07-31T05:34:45;10.88;;;6.68;;
10174;SDS011;18221;38.704;0.152;2023-07-31T05:37:13;11.65;;;6.35;;
10174;SDS011;18221;38.704;0.152;2023-07-31T05:39:41;12.98;;;7.18;;
10174;SDS011;18221;38.704;0.152;2023-07-31T05:42:09;12.98;;;6.63;;
10174;SDS011;18221;38.704;0.152;2023-07-31T05:44:39;12.23;;;6.38;;
10174;SDS011;18221;38.704;0.152;2023-07-31T05:47:07;12.95;;;6.50;;
10174;SDS011;18221;38.704;0.152;2023-07-31T05:49:36;15.85;;;7.28;;
10174;SDS011;18221;38.704;0.152;2023-07-31T05:52:04;13.77;;;7.40;;
10174;SDS011;18221;38.704;0.152;2023-07-31T05:54:33;13.25;;;6.28;;
10174;SDS011;18221;38.704;0.152;2023-07-31T05:57:01;12.82;;;6.28;;
10174;SDS011;18221;38.704;0.152;2023-07-31T05:59:30;11.07;;;6.03;;
10174;SDS011;18221;38.704;0.152;2023-07-31T06:01:59;10.20;;;5.43;;
10174;SDS011;18221;38.704;0.152;2023-07-31T06:04:28;11.85;;;5.60;;
10174;SDS011;18221;38.704;0.152;2023-07-31T06:06:56;11.70;;;5.93;;
10174;SDS011;18221;38.704;0.152;2023-07-31T06:09:24;10.35;;;5.43;;
10174;SDS011;18221;38.704;0.152;2023-07-31T06:11:52;10.32;;;5.30;;
10174;SDS011;18221;38.704;0.152;2023-07-31T06:14:20;10.93;;;5.70;;
10174;SDS011;18221;38.704;0.152;2023-07-31T06:16:48;10.70;;;5.60;;
10174;SDS011;18221;38.704;0.152;2023-07-31T06:19:18;11.95;;;5.55;;
10174;SDS011;18221;38.704;0.152;2023-07-31T06:21:49;8.10;;;5.20;;
10174;SDS011;18221;38.704;0.152;2023-07-31T06:24:17;15.38;;;5.97;;
10174;SDS011;18221;38.704;0.152;2023-07-31T06:26:46;13.32;;;5.50;;
10174;SDS011;18221;38.704;0.152;2023-07-31T06:29:14;16.95;;;6.20;;
10174;SDS011;18221;38.704;0.152;2023-07-31T06:31:42;21.58;;;6.45;;
10174;SDS011;18221;38.704;0.152;2023-07-31T06:34:11;25.80;;;8.13;;
10174;SDS011;18221;38.704;0.152;2023-07-31T06:36:40;19.67;;;6.93;;
10174;SDS011;18221;38.704;0.152;2023-07-31T06:39:11;10.02;;;5.20;;
10174;SDS011;18221;38.704;0.152;2023-07-31T06:41:40;11.65;;;5.40;;
10174;SDS011;18221;38.704;0.152;2023-07-31T06:44:09;9.32;;;5.50;;
10174;SDS011;18221;38.704;0.152;2023-07-31T06:46:37;10.45;;;4.90;;
10174;SDS011;18221;38.704;0.152;2023-07-31T06:49:05;11.05;;;5.68;;
10174;SDS011;18221;38.704;0.152;2023-07-31T06:51:33;15.57;;;5.43;;
10174;SDS011;18221;38.704;0.152;2023-07-31T06:54:05;11.27;;;5.00;;
10174;SDS011;18221;38.704;0.152;2023-07-31T06:56:32;11.15;;;5.47;;
10174;SDS011;18221;38.704;0.152;2023-07-31T06:59:01;11.23;;;5.38;;
10174;SDS011;18221;38.704;0.152;2023-07-31T07:01:29;11.88;;;5.53;;
10174;SDS011;18221;38.704;0.152;2023-07-31T07:03:57;10.82;;;5.53;;
10174;SDS011;18221;38.704;0.152;2023-07-31T07:06:26;8.27;;;4.78;;
10174;SDS011;18221;38.704;0.152;2023-07-31T07:08:54;13.35;;;5.47;;
10174;SDS011;18221;38.704;0.152;2023-07-31T07:11:24;10.23;;;5.32;;
10174;SDS011;18221;38.704;0.152;2023-07-31T07:13:52;12.88;;;5.30;;
10174;SDS011;18221;38.704;0.152;2023-07-31T07:16:20;9.48;;;4.72;;
10174;SDS011;18221;38.704;0.152;2023-07-31T07:18:48;7.88;;;4.22;;
10174;SDS011;18221;38.704;0.152;2023-07-31T07:21:16;8.30;;;4.80;;
10174;SDS011;18221;38.704;0.152;2023-07-31T07:23:44;9.07;;;4.95;;
10174;SDS011;18221;38.704;0.152;2023-07-31T07:26:12;8.93;;;4.68;;
10174;SDS011;18221;38.704;0.152;2023-07-31T07:28:42;11.75;;;4.90;;
10174;SDS011;18221;38.704;0.152;2023-07-31T07:31:10;8.38;;;4.78;;
10174;SDS011;18221;38.704;0.152;2023-07-31T07:33:38;8.77;;;4.45;;
10174;SDS011;18221;38.704;0.152;2023-07-31T07:36:06;12.38;;;4.57;;
10174;SDS011;18221;38.704;0.152;2023-07-31T07:38:35;7.20;;;4.07;;
10174;SDS011;18221;38.704;0.152;2023-07-31T07:41:04;10.80;;;4.45;;
10174;SDS011;18221;38.704;0.152;2023-07-31T07:43:32;9.23;;;4.22;;
10174;SDS011;18221;38.704;0.152;2023-07-31T07:46:02;8.52;;;4.43;;
10174;SDS011;18221;38.704;0.152;2023-07-31T07:48:30;10.40;;;4.60;;
10174;SDS011;18221;38.704;0.152;2023-07-31T07:50:58;9.32;;;4.68;;
10174;SDS011;18221;38.704;0.152;2023-07-31T07:53:26;8.43;;;4.57;;
10174;SDS011;18221;38.704;0.152;2023-07-31T07:55:54;8.32;;;4.72;;
10174;SDS011;18221;38.704;0.152;2023-07-31T07:58:23;9.93;;;4.38;;
10174;SDS011;18221;38.704;0.152;2023-07-31T08:00:50;8.85;;;4.72;;
10174;SDS011;18221;38.704;0.152;2023-07-31T08:03:20;8.88;;;4.60;;
10174;SDS011;18221;38.704;0.152;2023-07-31T08:05:49;10.70;;;5.00;;
10174;SDS011;18221;38.704;0.152;2023-07-31T08:08:17;11.32;;;5.30;;
10174;SDS011;18221;38.704;0.152;2023-07-31T08:10:45;11.25;;;5.03;;
10174;SDS011;18221;38.704;0.152;2023-07-31T08:13:13;9.18;;;5.03;;
10174;SDS011;18221;38.704;0.152;2023-07-31T08:15:41;9.65;;;4.80;;
10174;SDS011;18221;38.704;0.152;2023-07-31T08:18:09;10.13;;;4.15;;
10174;SDS011;18221;38.704;0.152;2023-07-31T08:20:40;8.38;;;4.15;;
10174;SDS011;18221;38.704;0.152;2023-07-31T08:23:08;11.55;;;3.83;;
10174;SDS011;18221;38.704;0.152;2023-07-31T08:25:37;31.63;;;7.80;;
10174;SDS011;18221;38.704;0.152;2023-07-31T08:28:05;11.95;;;3.72;;
10174;SDS011;18221;38.704;0.152;2023-07-31T08:30:34;8.43;;;3.78;;
10174;SDS011;18221;38.704;0.152;2023-07-31T08:33:02;8.23;;;4.03;;
10174;SDS011;18221;38.704;0.152;2023-07-31T08:35:30;10.07;;;3.83;;
10174;SDS011;18221;38.704;0.152;2023-07-31T08:38:00;8.75;;;4.05;;
10174;SDS011;18221;38.704;0.152;2023-07-31T08:40:28;56.63;;;10.20;;
10174;SDS011;18221;38.704;0.152;2023-07-31T08:42:56;17.27;;;5.18;;
10174;SDS011;18221;38.704;0.152;2023-07-31T08:45:27;10.20;;;4.20;;
10174;SDS011;18221;38.704;0.152;2023-07-31T08:47:56;9.98;;;4.63;;
10174;SDS011;18221;38.704;0.152;2023-07-31T08:50:26;8.57;;;3.97;;
10174;SDS011;18221;38.704;0.152;2023-07-31T08:52:54;11.55;;;4.32;;
10174;SDS011;18221;38.704;0.152;2023-07-31T08:55:24;9.57;;;4.20;;
10174;SDS011;18221;38.704;0.152;2023-07-31T08:57:54;12.23;;;3.92;;
10174;SDS011;18221;38.704;0.152;2023-07-31T09:00:24;9.13;;;4.28;;
10174;SDS011;18221;38.704;0.152;2023-07-31T09:02:56;8.15;;;4.35;;
10174;SDS011;18221;38.704;0.152;2023-07-31T09:05:29;7.85;;;4.13;;
10174;SDS011;18221;38.704;0.152;2023-07-31T09:07:58;9.75;;;4.13;;
10174;SDS011;18221;38.704;0.152;2023-07-31T09:10:32;8.70;;;4.18;;
10174;SDS011;18221;38.704;0.152;2023-07-31T09:13:07;11.80;;;4.30;;
10174;SDS011;18221;38.704;0.152;2023-07-31T09:15:36;10.30;;;4.40;;
10174;SDS011;18221;38.704;0.152;2023-07-31T09:18:06;14.38;;;5.13;;
10174;SDS011;18221;38.704;0.152;2023-07-31T09:20:35;11.48;;;4.70;;
10174;SDS011;18221;38.704;0.152;2023-07-31T09:23:06;10.00;;;4.53;;
10174;SDS011;18221;38.704;0.152;2023-07-31T09:25:38;8.40;;;4.65;;
10174;SDS011;18221;38.704;0.152;2023-07-31T09:28:10;12.20;;;4.40;;
10174;SDS011;18221;38.704;0.152;2023-07-31T09:30:45;12.23;;;4.97;;
10174;SDS011;18221;38.704;0.152;2023-07-31T09:33:15;10.20;;;4.03;;
10174;SDS011;18221;38.704;0.152;2023-07-31T09:35:44;8.73;;;4.15;;
10174;SDS011;18221;38.704;0.152;2023-07-31T09:38:14;10.13;;;5.07;;
10174;SDS011;18221;38.704;0.152;2023-07-31T09:40:45;10.07;;;4.57;;
10174;SDS011;18221;38.704;0.152;2023-07-31T09:43:17;12.70;;;4.57;;
10174;SDS011;18221;38.704;0.152;2023-07-31T09:45:47;8.52;;;4.22;;
10174;SDS011;18221;38.704;0.152;2023-07-31T09:48:20;10.93;;;4.35;;
10174;SDS011;18221;38.704;0.152;2023-07-31T09:50:52;7.35;;;4.22;;
10174;SDS011;18221;38.704;0.152;2023-07-31T09:53:23;10.35;;;4.72;;
10174;SDS011;18221;38.704;0.152;2023-07-31T09:55:59;10.23;;;4.20;;
10174;SDS011;18221;38.704;0.152;2023-07-31T09:58:29;12.00;;;4.60;;
10174;SDS011;18221;38.704;0.152;2023-07-31T10:01:02;10.43;;;4.82;;
10174;SDS011;18221;38.704;0.152;2023-07-31T10:03:30;8.65;;;5.07;;
10174;SDS011;18221;38.704;0.152;2023-07-31T10:06:00;9.80;;;4.40;;
10174;SDS011;18221;38.704;0.152;2023-07-31T10:08:30;8.90;;;4.75;;
10174;SDS011;18221;38.704;0.152;2023-07-31T10:11:04;11.77;;;5.20;;
10174;SDS011;18221;38.704;0.152;2023-07-31T10:13:36;11.85;;;4.95;;
10174;SDS011;18221;38.704;0.152;2023-07-31T10:16:06;9.75;;;4.63;;
10174;SDS011;18221;38.704;0.152;2023-07-31T10:18:34;11.75;;;4.43;;
10174;SDS011;18221;38.704;0.152;2023-07-31T10:21:04;8.00;;;4.70;;
10174;SDS011;18221;38.704;0.152;2023-07-31T10:23:34;11.88;;;4.53;;
10174;SDS011;18221;38.704;0.152;2023-07-31T10:26:05;9.98;;;4.43;;
10174;SDS011;18221;38.704;0.152;2023-07-31T10:28:36;10.95;;;5.20;;
10174;SDS011;18221;38.704;0.152;2023-07-31T10:31:06;12.02;;;5.22;;
10174;SDS011;18221;38.704;0.152;2023-07-31T10:33:35;11.15;;;4.50;;
10174;SDS011;18221;38.704;0.152;2023-07-31T10:36:14;12.45;;;4.85;;
10174;SDS011;18221;38.704;0.152;2023-07-31T10:38:45;9.80;;;4.75;;
10174;SDS011;18221;38.704;0.152;2023-07-31T10:41:17;12.30;;;4.72;;
10174;SDS011;18221;38.704;0.152;2023-07-31T10:43:46;13.05;;;4.32;;
10174;SDS011;18221;38.704;0.152;2023-07-31T10:46:14;9.57;;;4.45;;
10174;SDS011;18221;38.704;0.152;2023-07-31T10:48:43;14.13;;;4.78;;
10174;SDS011;18221;38.704;0.152;2023-07-31T10:51:11;9.23;;;4.65;;
10174;SDS011;18221;38.704;0.152;2023-07-31T10:53:41;8.10;;;3.80;;
10174;SDS011;18221;38.704;0.152;2023-07-31T10:56:09;11.60;;;5.00;;
10174;SDS011;18221;38.704;0.152;2023-07-31T10:58:39;15.93;;;5.55;;
10174;SDS011;18221;38.704;0.152;2023-07-31T11:01:11;8.77;;;4.22;;
10174;SDS011;18221;38.704;0.152;2023-07-31T11:03:42;11.15;;;4.47;;
10174;SDS011;18221;38.704;0.152;2023-07-31T11:06:17;8.00;;;4.18;;
10174;SDS011;18221;38.704;0.152;2023-07-31T11:08:46;9.10;;;3.85;;
10174;SDS011;18221;38.704;0.152;2023-07-31T11:11:17;10.20;;;4.00;;
10174;SDS011;18221;38.704;0.152;2023-07-31T11:13:48;7.38;;;4.05;;
10174;SDS011;18221;38.704;0.152;2023-07-31T11:16:18;9.82;;;4.07;;
10174;SDS011;18221;38.704;0.152;2023-07-31T11:18:49;10.07;;;4.13;;
10174;SDS011;18221;38.704;0.152;2023-07-31T11:21:19;8.85;;;3.95;;
10174;SDS011;18221;38.704;0.152;2023-07-31T11:23:50;7.47;;;3.92;;
10174;SDS011;18221;38.704;0.152;2023-07-31T11:26:23;10.20;;;4.40;;
10174;SDS011;18221;38.704;0.152;2023-07-31T11:28:53;9.52;;;4.05;;
10174;SDS011;18221;38.704;0.152;2023-07-31T11:31:21;12.50;;;4.00;;
10174;SDS011;18221;38.704;0.152;2023-07-31T11:33:50;7.80;;;3.90;;
10174;SDS011;18221;38.704;0.152;2023-07-31T11:36:30;7.93;;;3.83;;
10174;SDS011;18221;38.704;0.152;2023-07-31T11:39:04;10.73;;;4.13;;
10174;SDS011;18221;38.704;0.152;2023-07-31T11:41:33;10.23;;;4.07;;
10174;SDS011;18221;38.704;0.152;2023-07-31T11:44:03;10.57;;;4.00;;
10174;SDS011;18221;38.704;0.152;2023-07-31T11:46:31;7.75;;;3.70;;
10174;SDS011;18221;38.704;0.152;2023-07-31T11:49:01;9.43;;;3.95;;
10174;SDS011;18221;38.704;0.152;2023-07-31T11:51:29;6.85;;;3.60;;
10174;SDS011;18221;38.704;0.152;2023-07-31T11:54:00;8.98;;;3.95;;
10174;SDS011;18221;38.704;0.152;2023-07-31T11:56:30;13.10;;;3.80;;
10174;SDS011;18221;38.704;0.152;2023-07-31T11:58:59;9.48;;;3.97;;
10174;SDS011;18221;38.704;0.152;2023-07-31T12:01:31;7.22;;;3.60;;
10174;SDS011;18221;38.704;0.152;2023-07-31T12:03:59;10.05;;;3.90;;
10174;SDS011;18221;38.704;0.152;2023-07-31T12:06:34;9.18;;;4.00;;
10174;SDS011;18221;38.704;0.152;2023-07-31T12:09:03;10.07;;;3.85;;
10174;SDS011;18221;38.704;0.152;2023-07-31T12:11:32;12.63;;;4.13;;
10174;SDS011;18221;38.704;0.152;2023-07-31T12:14:20;10.38;;;4.18;;
10174;SDS011;18221;38.704;0.152;2023-07-31T12:16:53;10.90;;;3.97;;
10174;SDS011;18221;38.704;0.152;2023-07-31T12:19:22;12.00;;;3.83;;
10174;SDS011;18221;38.704;0.152;2023-07-31T12:21:53;12.63;;;4.60;;
10174;SDS011;18221;38.704;0.152;2023-07-31T12:24:22;8.98;;;4.20;;
10174;SDS011;18221;38.704;0.152;2023-07-31T12:26:50;14.05;;;4.30;;
10174;SDS011;18221;38.704;0.152;2023-07-31T12:29:21;12.43;;;4.30;;
10174;SDS011;18221;38.704;0.152;2023-07-31T12:31:49;10.80;;;4.00;;
10174;SDS011;18221;38.704;0.152;2023-07-31T12:34:19;10.80;;;4.38;;
10174;SDS011;18221;38.704;0.152;2023-07-31T12:36:47;10.65;;;3.78;;
10174;SDS011;18221;38.704;0.152;2023-07-31T12:39:16;21.48;;;4.70;;
10174;SDS011;18221;38.704;0.152;2023-07-31T12:41:44;10.15;;;4.25;;
10174;SDS011;18221;38.704;0.152;2023-07-31T12:44:12;9.98;;;4.53;;
10174;SDS011;18221;38.704;0.152;2023-07-31T12:46:42;11.48;;;4.40;;
10174;SDS011;18221;38.704;0.152;2023-07-31T12:49:10;16.38;;;4.78;;
10174;SDS011;18221;38.704;0.152;2023-07-31T12:51:38;12.73;;;4.30;;
10174;SDS011;18221;38.704;0.152;2023-07-31T12:54:06;9.75;;;4.50;;
10174;SDS011;18221;38.704;0.152;2023-07-31T12:56:34;9.20;;;4.10;;
10174;SDS011;18221;38.704;0.152;2023-07-31T12:59:03;11.40;;;4.22;;
10174;SDS011;18221;38.704;0.152;2023-07-31T13:01:31;13.18;;;5.40;;
10174;SDS011;18221;38.704;0.152;2023-07-31T13:04:01;11.35;;;4.90;;
10174;SDS011;18221;38.704;0.152;2023-07-31T13:06:29;12.52;;;4.60;;
10174;SDS011;18221;38.704;0.152;2023-07-31T13:08:57;11.02;;;4.63;;
10174;SDS011;18221;38.704;0.152;2023-07-31T13:11:25;17.85;;;5.00;;
10174;SDS011;18221;38.704;0.152;2023-07-31T13:13:53;10.18;;;4.03;;
10174;SDS011;18221;38.704;0.152;2023-07-31T13:16:22;9.85;;;4.40;;
10174;SDS011;18221;38.704;0.152;2023-07-31T13:18:50;10.43;;;4.35;;
10174;SDS011;18221;38.704;0.152;2023-07-31T13:21:20;10.85;;;4.38;;
10174;SDS011;18221;38.704;0.152;2023-07-31T13:23:48;8.27;;;4.03;;
10174;SDS011;18221;38.704;0.152;2023-07-31T13:26:16;6.95;;;3.92;;
10174;SDS011;18221;38.704;0.152;2023-07-31T13:28:45;12.55;;;4.32;;
10174;SDS011;18221;38.704;0.152;2023-07-31T13:31:13;9.52;;;4.57;;
10174;SDS011;18221;38.704;0.152;2023-07-31T13:33:41;9.95;;;4.10;;
10174;SDS011;18221;38.704;0.152;2023-07-31T13:36:09;12.27;;;4.13;;
10174;SDS011;18221;38.704;0.152;2023-07-31T13:38:40;12.32;;;4.07;;
10174;SDS011;18221;38.704;0.152;2023-07-31T13:41:09;9.52;;;3.92;;
10174;SDS011;18221;38.704;0.152;2023-07-31T13:43:37;13.40;;;4.45;;
10174;SDS011;18221;38.704;0.152;2023-07-31T13:46:06;7.90;;;3.65;;
10174;SDS011;18221;38.704;0.152;2023-07-31T13:48:36;10.77;;;4.20;;
10174;SDS011;18221;38.704;0.152;2023-07-31T13:51:04;11.32;;;4.28;;
10174;SDS011;18221;38.704;0.152;2023-07-31T13:53:32;10.77;;;4.15;;
10174;SDS011;18221;38.704;0.152;2023-07-31T13:56:02;13.43;;;4.47;;
10174;SDS011;18221;38.704;0.152;2023-07-31T13:58:32;9.65;;;4.25;;
10174;SDS011;18221;38.704;0.152;2023-07-31T14:01:00;9.32;;;4.55;;
10174;SDS011;18221;38.704;0.152;2023-07-31T14:03:30;8.80;;;4.13;;
10174;SDS011;18221;38.704;0.152;2023-07-31T14:05:58;11.68;;;4.45;;
10174;SDS011;18221;38.704;0.152;2023-07-31T14:08:26;15.43;;;4.82;;
10174;SDS011;18221;38.704;0.152;2023-07-31T14:10:55;12.65;;;3.78;;
10174;SDS011;18221;38.704;0.152;2023-07-31T14:13:26;13.57;;;4.80;;
10174;SDS011;18221;38.704;0.152;2023-07-31T14:15:54;12.05;;;4.63;;
10174;SDS011;18221;38.704;0.152;2023-07-31T14:18:22;9.23;;;4.10;;
10174;SDS011;18221;38.704;0.152;2023-07-31T14:20:51;9.95;;;4.45;;
10174;SDS011;18221;38.704;0.152;2023-07-31T14:23:19;10.55;;;3.90;;
10174;SDS011;18221;38.704;0.152;2023-07-31T14:25:48;10.63;;;4.20;;
10174;SDS011;18221;38.704;0.152;2023-07-31T14:28:16;11.43;;;4.53;;
10174;SDS011;18221;38.704;0.152;2023-07-31T14:30:45;10.75;;;4.25;;
10174;SDS011;18221;38.704;0.152;2023-07-31T14:33:14;9.02;;;4.18;;
10174;SDS011;18221;38.704;0.152;2023-07-31T14:35:42;12.27;;;4.63;;
10174;SDS011;18221;38.704;0.152;2023-07-31T14:38:10;10.68;;;4.20;;
10174;SDS011;18221;38.704;0.152;2023-07-31T14:40:38;9.75;;;4.32;;
10174;SDS011;18221;38.704;0.152;2023-07-31T14:43:07;8.52;;;3.97;;
10174;SDS011;18221;38.704;0.152;2023-07-31T14:45:35;10.85;;;4.45;;
10174;SDS011;18221;38.704;0.152;2023-07-31T14:48:04;14.90;;;4.65;;
10174;SDS011;18221;38.704;0.152;2023-07-31T14:50:32;11.25;;;4.28;;
10174;SDS011;18221;38.704;0.152;2023-07-31T14:53:01;8.43;;;4.35;;
10174;SDS011;18221;38.704;0.152;2023-07-31T14:55:29;11.50;;;5.07;;
10174;SDS011;18221;38.704;0.152;2023-07-31T14:57:58;9.15;;;4.38;;
10174;SDS011;18221;38.704;0.152;2023-07-31T15:00:26;8.10;;;4.43;;
10174;SDS011;18221;38.704;0.152;2023-07-31T15:02:54;9.07;;;4.05;;
10174;SDS011;18221;38.704;0.152;2023-07-31T15:05:24;14.95;;;4.82;;